createdAt,value
2022-10-28T00:01:29.359Z,39.52
2022-10-28T00:03:46.011Z,39.51
2022-10-28T00:05:52.639Z,39.64
2022-10-28T00:07:58.862Z,39.73
2022-10-28T00:10:05.645Z,40.08
2022-10-28T00:12:11.643Z,40.51
2022-10-28T00:14:17.522Z,40.69
2022-10-28T00:16:25.915Z,40.73
2022-10-28T00:18:32.129Z,40.85
2022-10-28T00:20:38.572Z,40.96
2022-10-28T00:22:45.292Z,41.37
2022-10-28T00:24:51.676Z,41.61
2022-10-28T00:26:57.727Z,41.65
2022-10-28T00:29:12.800Z,41.66
2022-10-28T00:31:20.750Z,41.78
2022-10-28T00:33:27.669Z,42.07
2022-10-28T00:35:34.984Z,42.44
2022-10-28T00:37:41.450Z,42.75
2022-10-28T00:39:47.770Z,42.96
2022-10-28T00:42:00.294Z,43.16
2022-10-28T00:44:43.438Z,43.29
2022-10-28T00:46:54.540Z,43.57
2022-10-28T00:49:14.504Z,43.79
2022-10-28T00:51:22.586Z,43.90
2022-10-28T00:53:32.352Z,44.10
2022-10-28T00:55:39.085Z,44.34
2022-10-28T00:57:47.509Z,44.65
2022-10-28T00:59:55.731Z,44.91
2022-10-28T01:02:02.796Z,45.16
2022-10-28T01:04:10.427Z,45.30
2022-10-28T01:06:17.241Z,45.62
2022-10-28T01:08:23.670Z,45.76
2022-10-28T01:10:39.965Z,45.88
2022-10-28T01:12:55.409Z,46.09
2022-10-28T01:15:26.282Z,46.23
2022-10-28T01:18:09.769Z,46.45
2022-10-28T01:20:42.450Z,46.65
2022-10-28T01:22:55.676Z,46.84
2022-10-28T01:25:26.328Z,46.96
2022-10-28T01:27:48.709Z,47.18
2022-10-28T01:30:37.858Z,47.49
2022-10-28T01:32:55.996Z,47.60
2022-10-28T01:35:33.853Z,47.78
2022-10-28T01:38:26.853Z,47.95
2022-10-28T01:40:44.611Z,48.09
2022-10-28T01:43:16.959Z,48.06
2022-10-28T01:45:30.271Z,48.32
2022-10-28T01:47:46.667Z,48.44
2022-10-28T01:50:08.131Z,48.72
2022-10-28T01:52:18.359Z,48.73
2022-10-28T01:54:29.507Z,48.90
2022-10-28T01:56:41.790Z,48.94
2022-10-28T01:58:48.510Z,49.04
2022-10-28T02:00:56.298Z,49.05
2022-10-28T02:03:11.253Z,49.25
2022-10-28T02:05:42.908Z,49.40
2022-10-28T02:07:52.093Z,49.51
2022-10-28T02:10:28.926Z,49.71
2022-10-28T02:12:38.693Z,49.82
2022-10-28T02:15:16.383Z,50.00
2022-10-28T02:17:38.224Z,50.15
2022-10-28T02:20:16.489Z,50.24
2022-10-28T02:22:32.963Z,50.38
2022-10-28T02:24:44.572Z,50.36
2022-10-28T02:27:03.307Z,50.56
2022-10-28T02:29:27.964Z,50.74
2022-10-28T02:31:40.328Z,50.79
2022-10-28T02:33:52.277Z,50.94
2022-10-28T02:36:16.467Z,51.36
2022-10-28T02:38:44.130Z,52.10
2022-10-28T02:40:55.713Z,52.31
2022-10-28T02:43:08.782Z,52.81
2022-10-28T02:45:30.062Z,53.18
2022-10-28T02:47:42.048Z,53.52
2022-10-28T02:49:53.938Z,53.81
2022-10-28T02:52:01.524Z,54.25
2022-10-28T02:54:39.986Z,54.41
2022-10-28T02:57:11.775Z,54.74
2022-10-28T02:59:17.757Z,55.00
2022-10-28T03:01:24.338Z,55.09
2022-10-28T03:03:30.750Z,55.22
2022-10-28T03:05:37.432Z,55.34
2022-10-28T03:07:45.318Z,55.54
2022-10-28T03:09:52.378Z,55.81
2022-10-28T03:11:58.740Z,55.89
2022-10-28T03:14:05.270Z,56.02
2022-10-28T03:16:12.089Z,56.27
2022-10-28T03:18:18.462Z,56.66
2022-10-28T03:20:24.882Z,56.69
2022-10-28T03:22:30.731Z,56.73
2022-10-28T03:24:37.107Z,57.12
2022-10-28T03:26:43.656Z,57.34
2022-10-28T03:28:50.358Z,57.36
2022-10-28T03:30:56.671Z,57.64
2022-10-28T03:33:03.408Z,57.45
2022-10-28T03:35:10.382Z,57.59
2022-10-28T03:37:16.694Z,57.87
2022-10-28T03:39:23.295Z,57.79
2022-10-28T03:41:29.904Z,57.90
2022-10-28T03:43:36.300Z,58.31
2022-10-28T03:45:43.810Z,58.53
2022-10-28T03:47:50.652Z,58.75
2022-10-28T03:49:57.241Z,58.98
2022-10-28T03:52:05.151Z,59.43
2022-10-28T03:54:11.544Z,59.61
2022-10-28T03:56:17.878Z,59.75
2022-10-28T03:58:24.585Z,59.86
2022-10-28T04:00:31.750Z,59.86
2022-10-28T04:02:38.269Z,59.87
2022-10-28T04:04:44.766Z,60.00
2022-10-28T04:06:50.895Z,60.09
2022-10-28T04:08:57.595Z,60.20
2022-10-28T04:11:04.316Z,60.38
2022-10-28T04:13:11.727Z,60.55
2022-10-28T04:15:18.408Z,60.55
2022-10-28T04:17:25.014Z,60.81
2022-10-28T04:19:31.321Z,60.83
2022-10-28T04:21:37.739Z,61.03
2022-10-28T04:23:44.369Z,61.09
2022-10-28T04:25:55.241Z,61.29
2022-10-28T04:28:01.863Z,61.33
2022-10-28T04:30:09.691Z,61.43
2022-10-28T04:32:16.109Z,61.75
2022-10-28T04:34:22.128Z,61.91
2022-10-28T04:36:28.419Z,62.02
2022-10-28T04:38:34.659Z,62.20
2022-10-28T04:40:41.247Z,62.51
2022-10-28T04:42:48.006Z,62.54
2022-10-28T04:44:54.487Z,62.93
2022-10-28T04:47:01.570Z,62.92
2022-10-28T04:49:07.946Z,63.18
2022-10-28T04:51:14.272Z,63.16
2022-10-28T04:53:20.769Z,63.32
2022-10-28T04:55:27.042Z,63.32
2022-10-28T04:57:34.034Z,63.38
2022-10-28T04:59:40.398Z,63.55
2022-10-28T05:01:46.925Z,63.74
2022-10-28T05:03:53.415Z,63.94
2022-10-28T05:05:59.673Z,63.84
2022-10-28T05:08:06.304Z,64.15
2022-10-28T05:10:16.441Z,64.19
2022-10-28T05:12:22.861Z,64.26
2022-10-28T05:14:30.020Z,64.31
2022-10-28T05:16:36.365Z,64.56
2022-10-28T05:20:53.863Z,64.93
2022-10-28T05:23:00.726Z,64.94
2022-10-28T05:25:08.007Z,65.04
2022-10-28T05:27:14.414Z,65.08
2022-10-28T05:29:20.708Z,65.12
2022-10-28T05:31:26.801Z,65.25
2022-10-28T05:33:34.598Z,65.27
2022-10-28T05:35:41.898Z,65.27
2022-10-28T05:37:48.440Z,65.31
2022-10-28T05:39:54.810Z,65.40
2022-10-28T05:42:01.524Z,65.56
2022-10-28T05:44:08.176Z,65.57
2022-10-28T05:46:15.288Z,65.58
2022-10-28T05:48:22.322Z,65.70
2022-10-28T05:50:29.140Z,65.74
2022-10-28T05:52:35.611Z,65.82
2022-10-28T05:54:42.593Z,65.87
2022-10-28T05:56:48.831Z,66.01
2022-10-28T05:58:55.088Z,66.16
2022-10-28T06:01:01.917Z,66.22
2022-10-28T06:03:11.827Z,66.43
2022-10-28T06:05:18.697Z,66.41
2022-10-28T06:07:25.731Z,66.48
2022-10-28T06:09:32.233Z,66.63
2022-10-28T06:11:37.241Z,66.72
2022-10-28T06:13:44.029Z,67.00
2022-10-28T06:15:57.106Z,67.03
2022-10-28T06:18:04.287Z,67.14
2022-10-28T06:20:10.835Z,67.39
2022-10-28T06:22:17.076Z,67.34
2022-10-28T06:24:23.635Z,67.50
2022-10-28T06:26:29.843Z,67.66
2022-10-28T06:28:36.077Z,67.69
2022-10-28T06:30:42.747Z,67.73
2022-10-28T06:32:49.181Z,67.89
2022-10-28T06:34:55.504Z,67.83
2022-10-28T06:37:02.101Z,67.88
2022-10-28T06:39:08.297Z,67.82
2022-10-28T06:41:14.828Z,67.86
2022-10-28T06:43:21.182Z,67.90
2022-10-28T06:45:29.589Z,67.94
2022-10-28T06:47:40.606Z,67.85
2022-10-28T06:49:48.914Z,67.83
2022-10-28T06:51:55.302Z,67.89
2022-10-28T06:54:01.876Z,68.01
2022-10-28T06:56:08.412Z,68.36
2022-10-28T06:58:15.053Z,68.50
2022-10-28T07:00:25.870Z,68.36
2022-10-28T07:02:34.245Z,68.26
2022-10-28T07:04:41.084Z,68.22
2022-10-28T07:06:49.890Z,68.24
2022-10-28T07:08:58.565Z,68.30
2022-10-28T07:11:05.070Z,68.42
2022-10-28T07:13:11.212Z,68.28
2022-10-28T07:15:18.121Z,68.28
2022-10-28T07:17:25.080Z,68.30
2022-10-28T07:19:31.390Z,68.36
2022-10-28T07:21:38.496Z,68.26
2022-10-28T07:23:45.469Z,68.18
2022-10-28T07:25:56.590Z,68.22
2022-10-28T07:28:02.666Z,68.15
2022-10-28T07:30:09.697Z,68.17
2022-10-28T07:32:16.210Z,68.06
2022-10-28T07:34:26.807Z,67.98
2022-10-28T07:36:34.358Z,68.13
2022-10-28T07:38:41.634Z,68.16
2022-10-28T07:40:48.657Z,68.11
2022-10-28T07:42:55.553Z,68.14
2022-10-28T07:45:02.141Z,68.32
2022-10-28T07:47:08.718Z,68.41
2022-10-28T07:49:15.102Z,68.65
2022-10-28T07:51:21.259Z,68.59
2022-10-28T07:53:28.904Z,68.72
2022-10-28T07:55:35.526Z,68.91
2022-10-28T07:57:41.964Z,68.79
2022-10-28T07:59:48.734Z,68.99
2022-10-28T08:01:55.590Z,69.01
2022-10-28T08:04:02.308Z,68.86
2022-10-28T08:06:11.886Z,68.94
2022-10-28T08:08:18.060Z,68.95
2022-10-28T08:10:24.335Z,69.05
2022-10-28T08:12:31.861Z,68.93
2022-10-28T08:14:38.662Z,68.86
2022-10-28T08:16:45.293Z,69.05
2022-10-28T08:18:51.966Z,69.33
2022-10-28T08:23:12.669Z,69.27
2022-10-28T08:25:20.024Z,69.32
2022-10-28T08:27:26.542Z,69.24
2022-10-28T08:29:33.132Z,69.33
2022-10-28T08:31:40.458Z,69.35
2022-10-28T08:33:47.275Z,69.44
2022-10-28T08:35:53.723Z,69.33
2022-10-28T08:38:00.117Z,69.41
2022-10-28T08:40:07.217Z,69.71
2022-10-28T08:42:39.124Z,69.71
2022-10-28T08:45:04.120Z,69.79
2022-10-28T08:47:30.977Z,69.97
2022-10-28T08:49:43.369Z,69.98
2022-10-28T08:52:09.586Z,70.21
2022-10-28T08:54:23.360Z,70.20
2022-10-28T08:56:39.309Z,70.20
2022-10-28T08:58:48.645Z,70.30
2022-10-28T09:00:57.155Z,70.10
2022-10-28T09:03:21.603Z,69.90
2022-10-28T09:05:29.024Z,69.79
2022-10-28T09:07:38.481Z,69.94
2022-10-28T09:09:45.608Z,69.94
2022-10-28T09:12:10.755Z,69.95
2022-10-28T09:14:26.262Z,70.06
2022-10-28T09:16:49.292Z,70.32
2022-10-28T09:18:58.484Z,70.32
2022-10-28T09:21:12.133Z,70.67
2022-10-28T09:23:30.073Z,70.65
2022-10-28T09:25:40.652Z,70.83
2022-10-28T09:28:25.033Z,70.76
2022-10-28T09:30:53.207Z,70.82
2022-10-28T09:33:33.034Z,70.67
2022-10-28T09:35:43.986Z,70.78
2022-10-28T09:38:14.850Z,70.58
2022-10-28T09:40:28.640Z,70.81
2022-10-28T09:42:44.230Z,70.66
2022-10-28T09:45:16.263Z,70.56
2022-10-28T09:47:57.555Z,70.33
2022-10-28T09:50:08.584Z,70.23
2022-10-28T09:52:40.701Z,70.07
2022-10-28T09:54:52.887Z,69.94
2022-10-28T09:56:59.449Z,69.85
2022-10-28T09:59:06.202Z,69.83
2022-10-28T10:01:12.280Z,69.72
2022-10-28T10:03:19.236Z,69.87
2022-10-28T10:05:27.163Z,69.79
2022-10-28T10:08:01.689Z,69.99
2022-10-28T10:10:17.558Z,70.26
2022-10-28T10:12:23.859Z,70.66
2022-10-28T10:14:40.541Z,70.61
2022-10-28T10:16:58.755Z,70.80
2022-10-28T10:19:08.833Z,70.87
2022-10-28T10:21:17.276Z,70.81
2022-10-28T10:23:34.627Z,70.92
2022-10-28T10:25:41.192Z,70.74
2022-10-28T10:28:04.089Z,70.68
2022-10-28T10:30:22.833Z,70.81
2022-10-28T10:32:33.794Z,70.52
2022-10-28T10:34:45.237Z,70.47
2022-10-28T10:36:56.470Z,70.48
2022-10-28T10:39:04.871Z,70.49
2022-10-28T10:41:11.373Z,70.42
2022-10-28T10:43:20.534Z,70.63
2022-10-28T10:45:29.592Z,70.59
2022-10-28T10:47:36.351Z,70.74
2022-10-28T10:49:42.919Z,70.68
2022-10-28T10:52:00.506Z,70.73
2022-10-28T10:54:06.997Z,70.92
2022-10-28T10:56:16.838Z,70.86
2022-10-28T10:58:26.829Z,71.03
2022-10-28T11:00:46.541Z,70.81
2022-10-28T11:02:55.796Z,70.92
2022-10-28T11:05:08.405Z,70.73
2022-10-28T11:07:17.545Z,70.76
2022-10-28T11:09:41.179Z,70.61
2022-10-28T11:11:47.837Z,70.60
2022-10-28T11:14:06.069Z,70.42
2022-10-28T11:16:22.833Z,70.42
2022-10-28T11:18:32.738Z,70.46
2022-10-28T11:21:07.231Z,70.45
2022-10-28T11:23:13.760Z,70.25
2022-10-28T11:25:31.156Z,70.37
2022-10-28T11:27:48.654Z,70.31
2022-10-28T11:30:01.497Z,70.53
2022-10-28T11:32:56.194Z,70.36
2022-10-28T11:35:18.280Z,70.21
2022-10-28T11:37:39.940Z,70.03
2022-10-28T11:40:01.372Z,69.83
2022-10-28T11:42:14.517Z,69.73
2022-10-28T11:44:51.787Z,69.82
2022-10-28T11:47:06.958Z,69.58
2022-10-28T11:50:00.375Z,69.29
2022-10-28T11:52:45.486Z,69.47
2022-10-28T11:54:54.899Z,69.58
2022-10-28T11:57:31.427Z,69.65
2022-10-28T12:00:00.249Z,69.86
2022-10-28T12:02:43.120Z,69.95
2022-10-28T12:05:21.373Z,70.09
2022-10-28T12:07:30.438Z,69.84
2022-10-28T12:10:08.599Z,69.92
2022-10-28T12:12:44.825Z,70.05
2022-10-28T12:15:14.365Z,70.32
2022-10-28T12:17:39.605Z,70.55
2022-10-28T12:20:12.884Z,70.82
2022-10-28T12:22:45.568Z,71.21
2022-10-28T12:24:54.731Z,71.42
2022-10-28T12:27:06.910Z,71.34
2022-10-28T12:29:39.440Z,71.64
2022-10-28T12:31:50.314Z,72.00
2022-10-28T12:34:30.032Z,72.44
2022-10-28T12:36:52.198Z,72.72
2022-10-28T12:39:08.079Z,72.92
2022-10-28T12:41:31.611Z,72.49
2022-10-28T12:43:42.544Z,72.58
2022-10-28T12:45:51.505Z,72.67
2022-10-28T12:48:31.791Z,72.76
2022-10-28T12:50:46.493Z,72.76
2022-10-28T12:53:04.029Z,72.78
2022-10-28T12:55:22.758Z,73.32
2022-10-28T12:57:32.193Z,73.05
2022-10-28T12:59:47.160Z,73.23
2022-10-28T13:01:54.525Z,73.41
2022-10-28T13:04:01.905Z,73.59
2022-10-28T13:06:27.070Z,73.54
2022-10-28T13:08:50.980Z,73.78
2022-10-28T13:11:00.403Z,73.81
2022-10-28T13:13:12.575Z,73.97
2022-10-28T13:15:51.733Z,73.87
2022-10-28T13:18:30.532Z,73.87
2022-10-28T13:21:10.574Z,73.97
2022-10-28T13:23:29.987Z,73.79
2022-10-28T13:25:43.692Z,73.99
2022-10-28T13:27:56.426Z,73.81
2022-10-28T13:30:04.694Z,73.72
2022-10-28T13:32:38.434Z,73.67
2022-10-28T13:34:45.754Z,73.66
2022-10-28T13:37:04.466Z,73.48
2022-10-28T13:39:41.374Z,73.30
2022-10-28T13:41:48.864Z,73.06
2022-10-28T13:43:55.607Z,73.28
2022-10-28T13:46:01.793Z,73.08
2022-10-28T13:48:34.132Z,73.23
2022-10-28T13:50:40.207Z,72.73
2022-10-28T13:52:48.600Z,72.91
2022-10-28T13:54:57.740Z,72.76
2022-10-28T13:57:13.324Z,72.86
2022-10-28T13:59:23.221Z,72.68
2022-10-28T14:01:39.107Z,72.72
2022-10-28T14:03:53.763Z,72.65
2022-10-28T14:06:02.469Z,72.76
2022-10-28T14:08:20.029Z,72.69
2022-10-28T14:10:31.597Z,72.73
2022-10-28T14:12:44.483Z,72.52
2022-10-28T14:14:56.901Z,72.44
2022-10-28T14:17:03.588Z,72.35
2022-10-28T14:19:12.671Z,72.47
2022-10-28T14:21:19.472Z,72.58
2022-10-28T14:23:29.207Z,72.38
2022-10-28T14:25:49.344Z,72.51
2022-10-28T14:27:56.525Z,72.61
2022-10-28T14:30:03.143Z,72.31
2022-10-28T14:32:35.632Z,72.52
2022-10-28T14:34:45.461Z,72.56
2022-10-28T14:37:45.180Z,72.68
2022-10-28T14:40:10.674Z,72.68
2022-10-28T14:42:34.129Z,72.50
2022-10-28T14:45:00.850Z,72.46
2022-10-28T14:47:24.265Z,72.55
2022-10-28T14:49:37.643Z,72.35
2022-10-28T14:51:45.320Z,72.51
2022-10-28T14:53:58.475Z,72.58
2022-10-28T14:56:12.564Z,72.71
2022-10-28T14:58:28.766Z,72.68
2022-10-28T15:00:39.514Z,73.05
2022-10-28T15:02:46.577Z,73.07
2022-10-28T15:05:22.903Z,73.08
2022-10-28T15:07:31.848Z,73.46
2022-10-28T15:09:44.468Z,73.38
2022-10-28T15:12:07.731Z,73.55
2022-10-28T15:14:27.191Z,73.64
2022-10-28T15:16:35.012Z,73.95
2022-10-28T15:18:50.087Z,74.19
2022-10-28T15:21:11.580Z,74.32
2022-10-28T15:23:24.119Z,74.36
2022-10-28T15:25:30.865Z,74.46
2022-10-28T15:27:39.937Z,74.62
2022-10-28T15:29:46.242Z,74.61
2022-10-28T15:32:25.779Z,74.72
2022-10-28T15:34:32.215Z,74.75
2022-10-28T15:36:38.907Z,75.02
2022-10-28T15:38:46.664Z,75.09
2022-10-28T15:40:53.377Z,75.05
2022-10-28T15:43:02.348Z,74.99
2022-10-28T15:45:19.820Z,75.07
2022-10-28T15:47:34.066Z,75.20
2022-10-28T15:49:41.969Z,75.29
2022-10-28T15:52:20.536Z,75.30
2022-10-28T15:54:26.921Z,75.34
2022-10-28T15:56:32.962Z,75.30
2022-10-28T15:58:43.026Z,75.69
2022-10-28T16:00:54.119Z,75.55
2022-10-28T16:03:06.452Z,75.70
2022-10-28T16:05:33.726Z,75.71
2022-10-28T16:07:46.992Z,75.81
2022-10-28T16:09:53.245Z,75.82
2022-10-28T16:12:02.628Z,76.06
2022-10-28T16:14:35.927Z,75.97
2022-10-28T16:16:42.640Z,76.04
2022-10-28T16:18:55.390Z,76.21
2022-10-28T16:21:02.629Z,76.31
2022-10-28T16:23:17.146Z,76.28
2022-10-28T16:25:24.362Z,76.14
2022-10-28T16:27:33.400Z,76.40
2022-10-28T16:29:40.262Z,76.35
2022-10-28T16:31:51.373Z,76.44
2022-10-28T16:34:00.093Z,76.58
2022-10-28T16:36:06.591Z,76.45
2022-10-28T16:38:15.776Z,76.62
2022-10-28T16:40:49.811Z,76.42
2022-10-28T16:42:48.784Z,76.45
2022-10-28T16:44:55.237Z,76.39
2022-10-28T16:47:02.401Z,76.32
2022-10-28T16:49:08.522Z,76.36
2022-10-28T16:51:20.957Z,76.52
2022-10-28T16:53:27.769Z,76.37
2022-10-28T16:55:34.408Z,76.50
2022-10-28T16:57:40.961Z,76.72
2022-10-28T16:59:48.089Z,76.74
2022-10-28T17:01:54.300Z,76.81
2022-10-28T17:04:00.842Z,77.12
2022-10-28T17:06:08.025Z,77.21
2022-10-28T17:08:15.373Z,77.20
2022-10-28T17:10:21.499Z,77.18
2022-10-28T17:12:29.743Z,77.26
2022-10-28T17:14:36.282Z,77.41
2022-10-28T17:16:43.497Z,77.37
2022-10-28T17:18:53.743Z,77.39
2022-10-28T17:21:02.263Z,77.57
2022-10-28T17:23:08.906Z,77.59
2022-10-28T17:25:15.473Z,77.78
2022-10-28T17:27:22.123Z,78.00
2022-10-28T17:29:28.491Z,77.85
2022-10-28T17:31:35.068Z,78.03
2022-10-28T17:33:41.537Z,77.92
2022-10-28T17:35:48.163Z,78.24
2022-10-28T17:37:55.008Z,78.47
2022-10-28T17:40:01.769Z,78.53
2022-10-28T17:42:07.809Z,78.52
2022-10-28T17:44:13.876Z,78.70
2022-10-28T17:46:20.209Z,79.00
2022-10-28T17:48:26.726Z,78.85
2022-10-28T17:50:33.589Z,79.03
2022-10-28T17:52:39.940Z,78.94
2022-10-28T17:54:47.135Z,79.02
2022-10-28T17:56:53.433Z,79.09
2022-10-28T17:59:03.550Z,79.08
2022-10-28T18:01:10.355Z,79.42
2022-10-28T18:03:16.822Z,79.31
2022-10-28T18:05:23.252Z,79.48
2022-10-28T18:07:29.482Z,79.47
2022-10-28T18:09:35.822Z,79.67
2022-10-28T18:11:42.248Z,79.85
2022-10-28T18:13:50.989Z,80.14
2022-10-28T18:15:57.997Z,79.72
2022-10-28T18:18:04.231Z,79.66
2022-10-28T18:20:11.103Z,79.90
2022-10-28T18:22:18.268Z,79.88
2022-10-28T18:24:26.147Z,80.24
2022-10-28T18:26:34.272Z,80.24
2022-10-28T18:28:41.399Z,80.46
2022-10-28T18:30:48.380Z,80.53
2022-10-28T18:32:55.017Z,80.49
2022-10-28T18:35:01.933Z,80.67
2022-10-28T18:37:10.716Z,80.55
2022-10-28T18:39:17.410Z,80.56
2022-10-28T18:41:29.253Z,80.72
2022-10-28T18:43:35.620Z,80.69
2022-10-28T18:45:41.611Z,80.68
2022-10-28T18:47:48.486Z,80.64
2022-10-28T18:49:55.493Z,80.74
2022-10-28T18:52:02.232Z,80.61
2022-10-28T18:54:09.453Z,80.52
2022-10-28T18:56:18.575Z,80.43
2022-10-28T18:58:27.616Z,80.53
2022-10-28T19:00:36.113Z,80.37
2022-10-28T19:02:47.286Z,80.56
2022-10-28T19:04:54.469Z,80.39
2022-10-28T19:07:01.194Z,80.38
2022-10-28T19:09:08.699Z,80.35
2022-10-28T19:11:15.403Z,80.36
2022-10-28T19:13:21.446Z,80.36
2022-10-28T19:15:27.705Z,80.50
2022-10-28T19:17:34.167Z,80.46
2022-10-28T19:19:40.701Z,80.25
2022-10-28T19:21:47.280Z,80.21
2022-10-28T19:23:53.798Z,80.15
2022-10-28T19:26:01.267Z,80.13
2022-10-28T19:28:07.535Z,79.97
2022-10-28T19:30:14.537Z,80.04
2022-10-28T19:32:21.255Z,80.02
2022-10-28T19:34:28.922Z,79.92
2022-10-28T19:36:35.676Z,79.98
2022-10-28T19:38:42.348Z,79.98
2022-10-28T19:40:48.898Z,79.97
2022-10-28T19:42:55.755Z,80.03
2022-10-28T19:45:05.074Z,79.94
2022-10-28T19:47:11.682Z,79.96
2022-10-28T19:49:19.302Z,79.95
2022-10-28T19:51:34.155Z,79.88
2022-10-28T19:53:40.313Z,79.87
2022-10-28T19:55:46.950Z,79.85
2022-10-28T19:57:54.127Z,79.86
2022-10-28T20:00:00.681Z,80.03
2022-10-28T20:02:07.122Z,79.95
2022-10-28T20:04:13.795Z,80.00
2022-10-28T20:06:22.067Z,80.08
2022-10-28T20:08:28.360Z,79.93
2022-10-28T20:10:35.346Z,79.89
2022-10-28T20:12:41.807Z,79.92
2022-10-28T20:14:48.355Z,79.66
2022-10-28T20:16:54.783Z,79.57
2022-10-28T20:19:01.368Z,79.67
2022-10-28T20:21:19.084Z,79.86
2022-10-28T20:23:25.615Z,79.97
2022-10-28T20:25:32.010Z,80.00
2022-10-28T20:27:38.479Z,80.03
2022-10-28T20:29:45.216Z,79.95
2022-10-28T20:31:53.426Z,80.02
2022-10-28T20:34:02.639Z,80.14
2022-10-28T20:36:29.973Z,80.20
2022-10-28T20:38:36.385Z,80.08
2022-10-28T20:40:42.865Z,80.17
2022-10-28T20:42:49.422Z,80.07
2022-10-28T20:44:56.236Z,80.00
2022-10-28T20:47:02.737Z,79.90
2022-10-28T20:49:12.055Z,79.95
2022-10-28T20:51:18.885Z,79.85
2022-10-28T20:53:27.362Z,79.99
2022-10-28T20:55:33.452Z,79.91
2022-10-28T20:57:39.391Z,79.98
2022-10-28T20:59:46.278Z,79.97
2022-10-28T21:01:52.782Z,79.90
2022-10-28T21:04:01.641Z,79.83
2022-10-28T21:06:08.064Z,79.80
2022-10-28T21:08:14.586Z,79.65
2022-10-28T21:10:20.912Z,79.61
2022-10-28T21:12:27.576Z,79.63
2022-10-28T21:14:33.774Z,79.52
2022-10-28T21:16:39.849Z,79.37
2022-10-28T21:18:45.912Z,79.42
2022-10-28T21:20:57.995Z,79.34
2022-10-28T21:23:05.237Z,79.39
2022-10-28T21:25:11.928Z,79.49
2022-10-28T21:27:18.075Z,79.62
2022-10-28T21:29:24.775Z,79.76
2022-10-28T21:31:31.356Z,79.70
2022-10-28T21:33:39.344Z,79.78
2022-10-28T21:35:45.754Z,79.82
2022-10-28T21:37:52.308Z,79.93
2022-10-28T21:40:00.927Z,79.92
2022-10-28T21:42:08.121Z,80.10
2022-10-28T21:44:14.321Z,80.17
2022-10-28T21:46:22.182Z,80.17
2022-10-28T21:48:29.925Z,80.27
2022-10-28T21:50:36.925Z,80.29
2022-10-28T21:52:43.404Z,80.22
2022-10-28T21:54:49.556Z,80.24
2022-10-28T21:56:56.028Z,80.32
2022-10-28T21:59:02.759Z,80.30
2022-10-28T22:01:10.751Z,80.42
2022-10-28T22:03:17.516Z,80.47
2022-10-28T22:05:23.963Z,80.50
2022-10-28T22:07:30.114Z,80.44
2022-10-28T22:09:37.617Z,80.37
2022-10-28T22:11:44.313Z,80.40
2022-10-28T22:14:00.596Z,80.56
2022-10-28T22:16:09.755Z,80.60
2022-10-28T22:18:16.332Z,80.60
2022-10-28T22:20:22.744Z,80.71
2022-10-28T22:22:31.136Z,80.65
2022-10-28T22:24:37.598Z,80.80
2022-10-28T22:26:43.859Z,80.81
2022-10-28T22:28:51.582Z,80.85
2022-10-28T22:31:09.932Z,80.73
2022-10-28T22:33:15.849Z,80.82
2022-10-28T22:35:22.039Z,80.94
2022-10-28T22:37:28.464Z,80.94
2022-10-28T22:39:35.001Z,80.97
2022-10-28T22:41:41.300Z,80.92
2022-10-28T22:43:58.693Z,80.92
2022-10-28T22:46:07.754Z,81.12
2022-10-28T22:48:13.865Z,81.27
2022-10-28T22:50:20.659Z,81.31
2022-10-28T22:52:27.079Z,81.43
2022-10-28T22:54:33.655Z,81.53
2022-10-28T22:56:40.255Z,81.63
2022-10-28T22:58:46.546Z,81.80
2022-10-28T23:00:53.318Z,81.75
2022-10-28T23:02:59.814Z,81.73
2022-10-28T23:05:06.783Z,81.67
2022-10-28T23:07:13.529Z,81.85
2022-10-28T23:09:20.268Z,81.86
2022-10-28T23:11:28.102Z,81.89
2022-10-28T23:13:34.800Z,81.97
2022-10-28T23:15:40.955Z,81.99
2022-10-28T23:17:50.806Z,81.87
2022-10-28T23:19:57.443Z,82.01
2022-10-28T23:22:03.531Z,82.07
2022-10-28T23:24:10.323Z,81.99
2022-10-28T23:26:16.999Z,82.03
2022-10-28T23:28:23.572Z,82.09
2022-10-28T23:30:30.339Z,82.00
2022-10-28T23:32:37.045Z,81.99
2022-10-28T23:34:43.657Z,81.95
2022-10-28T23:36:55.025Z,81.82
2022-10-28T23:39:01.994Z,81.95
2022-10-28T23:41:10.893Z,81.98
2022-10-28T23:43:17.549Z,82.10
2022-10-28T23:45:24.339Z,81.94
2022-10-28T23:47:30.728Z,81.97
2022-10-28T23:49:37.328Z,81.99
2022-10-28T23:51:43.551Z,82.12
2022-10-28T23:53:49.842Z,82.03
2022-10-28T23:55:56.166Z,81.92
2022-10-28T23:58:02.506Z,81.99
